Time;durP1;ratioP1;P1;durP2;ratioP2;P2;SDS_P1;SDS_P2;PMS_P1;PMS_P2;Temp;Humidity;BMP_temperature;BMP_pressure;BME280_temperature;BME280_humidity;BME280_pressure;Samples;Min_cycle;Max_cycle;Signal;HPM_P1;HPM_P2
2023/10/28 00:00:15;;;;;;;1999.90;999.90;;;;;;;;;;5067972;28;20080;-87
2023/10/28 00:02:42;;;;;;;1999.90;999.90;;;;;;;;;;5069016;28;20556;-85
2023/10/28 00:05:09;;;;;;;1999.90;999.90;;;;;;;;;;5068711;28;20037;-85
2023/10/28 00:07:37;;;;;;;1999.90;999.90;;;;;;;;;;5067428;28;20459;-86
2023/10/28 00:10:07;;;;;;;1999.90;999.90;;;;;;;;;;5060603;28;20044;-84
2023/10/28 00:12:33;;;;;;;1999.90;999.90;;;;;;;;;;5060541;28;20484;-85
2023/10/28 00:15:00;;;;;;;1999.90;999.90;;;;;;;;;;5060130;28;20040;-85
2023/10/28 00:17:26;;;;;;;1999.90;999.90;;;;;;;;;;5060961;28;20504;-84
2023/10/28 00:19:53;;;;;;;1999.90;999.90;;;;;;;;;;5062203;28;20045;-85
2023/10/28 00:22:19;;;;;;;1999.90;999.90;;;;;;;;;;5055980;28;20049;-85
2023/10/28 00:24:47;;;;;;;1999.90;999.90;;;;;;;;;;5064358;28;20392;-84
2023/10/28 00:27:14;;;;;;;1999.90;999.90;;;;;;;;;;5060609;28;20493;-84
2023/10/28 00:29:41;;;;;;;1999.90;999.90;;;;;;;;;;5059627;28;20041;-86
2023/10/28 00:32:09;;;;;;;1999.90;999.90;;;;;;;;;;5063480;28;20048;-85
2023/10/28 00:34:35;;;;;;;1999.90;999.90;;;;;;;;;;5059137;28;20557;-85
2023/10/28 00:37:02;;;;;;;1999.90;999.90;;;;;;;;;;5059890;28;20059;-84
2023/10/28 00:39:28;;;;;;;1999.90;999.90;;;;;;;;;;5060021;28;20049;-85
2023/10/28 00:41:57;;;;;;;1999.90;999.90;;;;;;;;;;5060324;28;20057;-83
2023/10/28 00:44:24;;;;;;;1999.90;999.90;;;;;;;;;;5061121;28;20177;-84
2023/10/28 00:46:50;;;;;;;1999.90;999.90;;;;;;;;;;5057548;28;20044;-84
2023/10/28 00:49:17;;;;;;;1999.90;999.90;;;;;;;;;;5063023;28;20049;-85
2023/10/28 00:51:45;;;;;;;1999.90;999.90;;;;;;;;;;5060540;28;20141;-84
2023/10/28 00:54:11;;;;;;;1999.90;999.90;;;;;;;;;;5060186;28;20071;-84
2023/10/28 00:56:38;;;;;;;1999.90;999.90;;;;;;;;;;5065192;28;20051;-85
2023/10/28 00:59:06;;;;;;;1999.90;999.90;;;;;;;;;;5066933;28;20048;-84
2023/10/28 01:01:33;;;;;;;1999.90;999.90;;;;;;;;;;5063814;28;20131;-86
2023/10/28 01:03:59;;;;;;;1999.90;999.90;;;;;;;;;;5060774;28;20055;-85
2023/10/28 01:06:26;;;;;;;1999.90;999.90;;;;;;;;;;5058813;28;20481;-84
2023/10/28 01:08:52;;;;;;;1999.90;999.90;;;;;;;;;;5065227;28;20053;-87
2023/10/28 01:11:19;;;;;;;1999.90;999.90;;;;;;;;;;5058130;28;20454;-87
2023/10/28 01:13:45;;;;;;;1999.90;999.90;;;;;;;;;;5062670;28;20501;-83
2023/10/28 01:16:13;;;;;;;1999.90;999.90;;;;;;;;;;5060625;28;20056;-86
2023/10/28 01:18:40;;;;;;;1999.90;999.90;;;;;;;;;;5064112;28;20049;-85
2023/10/28 01:21:12;;;;;;;1999.90;999.90;;;;;;;;;;5059946;28;20060;-85
2023/10/28 01:23:38;;;;;;;1999.90;999.90;;;;;;;;;;5061407;28;20045;-84
2023/10/28 01:26:05;;;;;;;1999.90;999.90;;;;;;;;;;5062850;28;20049;-86
2023/10/28 01:28:32;;;;;;;1999.90;999.90;;;;;;;;;;5062578;28;20044;-85
2023/10/28 01:31:00;;;;;;;1999.90;999.90;;;;;;;;;;5061105;28;20057;-86
2023/10/28 01:33:26;;;;;;;1999.90;999.90;;;;;;;;;;5063146;28;20052;-84
2023/10/28 01:35:54;;;;;;;1999.90;999.90;;;;;;;;;;5061561;28;20455;-85
2023/10/28 01:38:23;;;;;;;1999.90;999.90;;;;;;;;;;5062590;28;20049;-86
2023/10/28 01:40:50;;;;;;;1999.90;999.90;;;;;;;;;;5060605;28;20133;-88
2023/10/28 01:43:16;;;;;;;1999.90;999.90;;;;;;;;;;5062387;28;20049;-85
2023/10/28 01:45:43;;;;;;;1999.90;999.90;;;;;;;;;;5058756;28;20048;-86
2023/10/28 01:48:10;;;;;;;1999.90;999.90;;;;;;;;;;5058586;28;20044;-86
2023/10/28 01:50:37;;;;;;;1999.90;999.90;;;;;;;;;;5061205;28;20051;-86
2023/10/28 01:53:03;;;;;;;1999.90;999.90;;;;;;;;;;5061233;28;20052;-85
2023/10/28 01:55:32;;;;;;;1999.90;999.90;;;;;;;;;;5057778;28;20052;-86
2023/10/28 01:57:59;;;;;;;1999.90;999.90;;;;;;;;;;5058726;28;20052;-83
2023/10/28 02:00:30;;;;;;;1999.90;999.90;;;;;;;;;;5058301;28;20048;-84
2023/10/28 02:02:57;;;;;;;1999.90;999.90;;;;;;;;;;5054213;28;20041;-85
2023/10/28 02:05:25;;;;;;;1999.90;999.90;;;;;;;;;;5059549;28;20404;-85
2023/10/28 02:07:51;;;;;;;1999.90;999.90;;;;;;;;;;5058779;28;20387;-86
2023/10/28 02:10:18;;;;;;;1999.90;999.90;;;;;;;;;;5058635;28;20053;-86
2023/10/28 02:12:48;;;;;;;1999.90;999.90;;;;;;;;;;5064074;28;20049;-86
2023/10/28 02:15:14;;;;;;;1999.90;999.90;;;;;;;;;;5059024;28;21073;-85
2023/10/28 02:17:41;;;;;;;1999.90;999.90;;;;;;;;;;5059950;28;20052;-84
2023/10/28 02:20:10;;;;;;;1999.90;999.90;;;;;;;;;;5058769;28;20059;-85
2023/10/28 02:22:36;;;;;;;1999.90;999.90;;;;;;;;;;5064604;28;20063;-86
2023/10/28 02:25:03;;;;;;;1999.90;999.90;;;;;;;;;;5061565;28;20056;-86
2023/10/28 02:27:30;;;;;;;1999.90;999.90;;;;;;;;;;5058634;28;20048;-86
2023/10/28 02:29:58;;;;;;;1999.90;999.90;;;;;;;;;;5061860;28;20529;-86
2023/10/28 02:32:24;;;;;;;1999.90;999.90;;;;;;;;;;5057674;28;20052;-86
2023/10/28 02:34:51;;;;;;;1999.90;999.90;;;;;;;;;;5058791;28;20044;-87
2023/10/28 02:37:17;;;;;;;1999.90;999.90;;;;;;;;;;5061210;28;20048;-87
2023/10/28 02:39:44;;;;;;;1999.90;999.90;;;;;;;;;;5057203;28;20045;-87
2023/10/28 02:42:11;;;;;;;1999.90;999.90;;;;;;;;;;5059097;28;20122;-88
2023/10/28 02:44:37;;;;;;;1999.90;999.90;;;;;;;;;;5058696;28;20430;-84
2023/10/28 02:47:05;;;;;;;1999.90;999.90;;;;;;;;;;5059762;28;20451;-85
2023/10/28 02:49:32;;;;;;;1999.90;999.90;;;;;;;;;;5061008;28;20053;-87
2023/10/28 02:51:58;;;;;;;1999.90;999.90;;;;;;;;;;5057715;28;20056;-88
2023/10/28 02:54:25;;;;;;;1999.90;999.90;;;;;;;;;;5057325;28;20061;-88
2023/10/28 02:56:51;;;;;;;1999.90;999.90;;;;;;;;;;5054993;28;20049;-87
2023/10/28 02:59:18;;;;;;;1999.90;999.90;;;;;;;;;;5060184;28;20803;-86
2023/10/28 03:01:44;;;;;;;1999.90;999.90;;;;;;;;;;5061165;28;20045;-87
2023/10/28 03:04:13;;;;;;;1999.90;999.90;;;;;;;;;;5056169;28;20044;-83
2023/10/28 03:06:40;;;;;;;1999.90;999.90;;;;;;;;;;5058452;28;20052;-89
2023/10/28 03:09:06;;;;;;;1999.90;999.90;;;;;;;;;;5057499;28;20065;-86
2023/10/28 03:11:33;;;;;;;1999.90;999.90;;;;;;;;;;5058819;28;20069;-86
2023/10/28 03:13:59;;;;;;;1999.90;999.90;;;;;;;;;;5059558;28;20048;-88
2023/10/28 03:16:26;;;;;;;1999.90;999.90;;;;;;;;;;5060083;28;20144;-85
2023/10/28 03:18:53;;;;;;;1999.90;999.90;;;;;;;;;;5058204;28;20576;-85
2023/10/28 03:21:20;;;;;;;1999.90;999.90;;;;;;;;;;5058554;28;20494;-86
2023/10/28 03:23:47;;;;;;;1999.90;999.90;;;;;;;;;;5055394;28;20055;-85
2023/10/28 03:26:14;;;;;;;1999.90;999.90;;;;;;;;;;5057872;28;20056;-85
2023/10/28 03:28:40;;;;;;;1999.90;999.90;;;;;;;;;;5060275;28;20048;-88
2023/10/28 03:31:09;;;;;;;1999.90;999.90;;;;;;;;;;5059385;28;20061;-85
2023/10/28 03:33:36;;;;;;;1999.90;999.90;;;;;;;;;;5058545;28;20045;-86
2023/10/28 03:36:03;;;;;;;1999.90;999.90;;;;;;;;;;5060827;28;20057;-84
2023/10/28 03:38:31;;;;;;;1999.90;999.90;;;;;;;;;;5060113;28;20044;-86
2023/10/28 03:40:57;;;;;;;1999.90;999.90;;;;;;;;;;5055924;28;20065;-87
2023/10/28 03:43:24;;;;;;;1999.90;999.90;;;;;;;;;;5060538;28;20056;-86
2023/10/28 03:45:50;;;;;;;1999.90;999.90;;;;;;;;;;5060869;28;20084;-88
2023/10/28 03:48:17;;;;;;;1999.90;999.90;;;;;;;;;;5057925;28;20049;-85
2023/10/28 03:50:43;;;;;;;1999.90;999.90;;;;;;;;;;5062592;28;20501;-85
2023/10/28 03:53:10;;;;;;;1999.90;999.90;;;;;;;;;;5061440;28;20048;-85
2023/10/28 03:55:38;;;;;;;1999.90;999.90;;;;;;;;;;5061057;28;20057;-85
2023/10/28 03:58:04;;;;;;;1999.90;999.90;;;;;;;;;;5053633;28;20417;-85
2023/10/28 04:00:31;;;;;;;1999.90;999.90;;;;;;;;;;5055121;28;20048;-86
2023/10/28 04:02:58;;;;;;;1999.90;999.90;;;;;;;;;;5058034;28;20037;-86
2023/10/28 04:05:25;;;;;;;1999.90;999.90;;;;;;;;;;5062420;28;20053;-87
2023/10/28 04:07:51;;;;;;;1999.90;999.90;;;;;;;;;;5064142;28;20052;-86
2023/10/28 04:10:18;;;;;;;1999.90;999.90;;;;;;;;;;5068662;28;20048;-88
2023/10/28 04:12:46;;;;;;;1999.90;999.90;;;;;;;;;;5066272;28;20044;-88
2023/10/28 04:15:14;;;;;;;1999.90;999.90;;;;;;;;;;5063796;28;20063;-87
2023/10/28 04:17:40;;;;;;;1999.90;999.90;;;;;;;;;;5067438;28;20060;-87
2023/10/28 04:20:08;;;;;;;1999.90;999.90;;;;;;;;;;5067549;28;20046;-86
2023/10/28 04:22:35;;;;;;;1999.90;999.90;;;;;;;;;;5066992;28;20117;-86
2023/10/28 04:25:02;;;;;;;1999.90;999.90;;;;;;;;;;5062249;28;20048;-85
2023/10/28 04:27:29;;;;;;;1999.90;999.90;;;;;;;;;;5063925;28;20048;-88
2023/10/28 04:29:56;;;;;;;1999.90;999.90;;;;;;;;;;5065696;28;20052;-84
2023/10/28 04:32:24;;;;;;;1999.90;999.90;;;;;;;;;;5059272;28;20409;-86
2023/10/28 04:34:51;;;;;;;1999.90;999.90;;;;;;;;;;5060328;28;20049;-86
2023/10/28 04:37:18;;;;;;;1999.90;999.90;;;;;;;;;;5067002;28;20048;-85
2023/10/28 04:39:44;;;;;;;1999.90;999.90;;;;;;;;;;5061722;28;20047;-85
2023/10/28 04:42:11;;;;;;;1999.90;999.90;;;;;;;;;;5061151;28;20409;-87
2023/10/28 04:44:37;;;;;;;1999.90;999.90;;;;;;;;;;5060769;28;20055;-85
2023/10/28 04:47:05;;;;;;;1999.90;999.90;;;;;;;;;;5058811;28;20102;-85
2023/10/28 04:49:32;;;;;;;1999.90;999.90;;;;;;;;;;5062089;28;20064;-86
2023/10/28 04:51:58;;;;;;;1999.90;999.90;;;;;;;;;;5060061;28;20056;-86
2023/10/28 04:54:25;;;;;;;1999.90;999.90;;;;;;;;;;5060397;28;20057;-86
2023/10/28 04:56:51;;;;;;;1999.90;999.90;;;;;;;;;;5061698;28;20412;-84
2023/10/28 04:59:18;;;;;;;1999.90;999.90;;;;;;;;;;5060828;28;20049;-86
2023/10/28 05:01:44;;;;;;;1999.90;999.90;;;;;;;;;;5057565;28;20995;-88
2023/10/28 05:04:12;;;;;;;1999.90;999.90;;;;;;;;;;5061636;28;20052;-85
2023/10/28 05:06:40;;;;;;;1999.90;999.90;;;;;;;;;;5060299;28;20044;-86
2023/10/28 05:09:06;;;;;;;1999.90;999.90;;;;;;;;;;5061525;28;20090;-85
2023/10/28 05:11:33;;;;;;;1999.90;999.90;;;;;;;;;;5062294;28;20501;-87
2023/10/28 05:13:59;;;;;;;1999.90;999.90;;;;;;;;;;5059137;28;20041;-86
2023/10/28 05:16:26;;;;;;;1999.90;999.90;;;;;;;;;;5060465;28;20052;-88
2023/10/28 05:18:52;;;;;;;1999.90;999.90;;;;;;;;;;5062214;28;20485;-86
2023/10/28 05:21:20;;;;;;;1999.90;999.90;;;;;;;;;;5060940;28;20052;-86
2023/10/28 05:23:47;;;;;;;1999.90;999.90;;;;;;;;;;5061752;28;20045;-87
2023/10/28 05:26:13;;;;;;;1999.90;999.90;;;;;;;;;;5061889;28;20044;-87
2023/10/28 05:28:40;;;;;;;1999.90;999.90;;;;;;;;;;5059780;28;20048;-86
2023/10/28 05:31:06;;;;;;;1999.90;999.90;;;;;;;;;;5062646;28;20046;-86
2023/10/28 05:33:33;;;;;;;1999.90;999.90;;;;;;;;;;5063860;28;20059;-89
2023/10/28 05:35:59;;;;;;;1999.90;999.90;;;;;;;;;;5058365;28;20048;-88
2023/10/28 05:38:27;;;;;;;1999.90;999.90;;;;;;;;;;5063281;28;20499;-87
2023/10/28 05:40:54;;;;;;;1999.90;999.90;;;;;;;;;;5061522;28;20060;-87
2023/10/28 05:43:21;;;;;;;1999.90;999.90;;;;;;;;;;5063886;28;20185;-87
2023/10/28 05:45:48;;;;;;;1999.90;999.90;;;;;;;;;;5059097;28;20048;-87
2023/10/28 05:48:14;;;;;;;1999.90;999.90;;;;;;;;;;5060841;28;20421;-86
2023/10/28 05:50:41;;;;;;;1999.90;999.90;;;;;;;;;;5054205;28;20500;-88
2023/10/28 05:53:07;;;;;;;1999.90;999.90;;;;;;;;;;5062039;28;20049;-88
2023/10/28 05:55:36;;;;;;;1999.90;999.90;;;;;;;;;;5061897;28;20592;-87
2023/10/28 05:58:03;;;;;;;1999.90;999.90;;;;;;;;;;5061456;28;20486;-87
2023/10/28 06:00:31;;;;;;;1999.90;999.90;;;;;;;;;;5057709;28;20044;-86
2023/10/28 06:02:58;;;;;;;1999.90;999.90;;;;;;;;;;5058935;28;20052;-87
2023/10/28 06:05:25;;;;;;;1999.90;999.90;;;;;;;;;;5058820;28;20049;-87
2023/10/28 06:07:51;;;;;;;1999.90;999.90;;;;;;;;;;5064952;28;20050;-87
2023/10/28 06:10:18;;;;;;;1999.90;999.90;;;;;;;;;;5058654;28;20060;-88
2023/10/28 06:12:46;;;;;;;1999.90;999.90;;;;;;;;;;5060665;28;20040;-87
2023/10/28 06:15:14;;;;;;;1999.90;999.90;;;;;;;;;;5060130;28;20049;-86
2023/10/28 06:17:40;;;;;;;1999.90;999.90;;;;;;;;;;5064036;28;20052;-87
2023/10/28 06:20:08;;;;;;;1999.90;999.90;;;;;;;;;;5058628;28;20048;-86
2023/10/28 06:22:34;;;;;;;1999.90;999.90;;;;;;;;;;5059763;28;20057;-86
2023/10/28 06:25:02;;;;;;;1999.90;999.90;;;;;;;;;;5061770;28;20041;-87
2023/10/28 06:27:28;;;;;;;1999.90;999.90;;;;;;;;;;5060688;28;20052;-86
2023/10/28 06:29:57;;;;;;;1999.90;999.90;;;;;;;;;;5063223;28;20394;-85
2023/10/28 06:32:23;;;;;;;1999.90;999.90;;;;;;;;;;5058350;28;20037;-86
2023/10/28 06:34:50;;;;;;;1999.90;999.90;;;;;;;;;;5063600;28;20055;-87
2023/10/28 06:37:17;;;;;;;1999.90;999.90;;;;;;;;;;5061798;28;20060;-85
2023/10/28 06:39:46;;;;;;;1999.90;999.90;;;;;;;;;;5060378;28;20127;-87
2023/10/28 06:42:13;;;;;;;1999.90;999.90;;;;;;;;;;5064477;28;20056;-89
2023/10/28 06:44:40;;;;;;;1999.90;999.90;;;;;;;;;;5062778;28;20053;-86
2023/10/28 06:47:09;;;;;;;1999.90;999.90;;;;;;;;;;5062752;28;20118;-85
2023/10/28 06:49:36;;;;;;;1999.90;999.90;;;;;;;;;;5064109;28;20049;-86
2023/10/28 06:52:02;;;;;;;1999.90;999.90;;;;;;;;;;5072960;28;20044;-87
2023/10/28 06:54:29;;;;;;;1999.90;999.90;;;;;;;;;;5063183;28;20071;-86
2023/10/28 06:56:56;;;;;;;1999.90;999.90;;;;;;;;;;5063832;28;20054;-86
2023/10/28 06:59:23;;;;;;;1999.90;999.90;;;;;;;;;;5066137;28;20055;-87
2023/10/28 07:01:50;;;;;;;1999.90;999.90;;;;;;;;;;5070936;28;20048;-85
2023/10/28 07:04:19;;;;;;;1999.90;999.90;;;;;;;;;;5066383;28;20536;-87
2023/10/28 07:06:45;;;;;;;1999.90;999.90;;;;;;;;;;5065891;28;20040;-85
2023/10/28 07:09:15;;;;;;;1999.90;999.90;;;;;;;;;;5068616;28;20048;-85
2023/10/28 07:11:42;;;;;;;1999.90;999.90;;;;;;;;;;5072166;28;20049;-85
2023/10/28 07:14:09;;;;;;;1999.90;999.90;;;;;;;;;;5071245;28;20040;-87
2023/10/28 07:16:36;;;;;;;1999.90;999.90;;;;;;;;;;5061432;28;20084;-88
2023/10/28 07:19:02;;;;;;;1999.90;999.90;;;;;;;;;;5057941;28;20040;-87
2023/10/28 07:21:30;;;;;;;1999.90;999.90;;;;;;;;;;5054017;28;20045;-87
2023/10/28 07:23:57;;;;;;;1999.90;999.90;;;;;;;;;;5063197;28;20049;-88
2023/10/28 07:26:26;;;;;;;1999.90;999.90;;;;;;;;;;5058139;28;20041;-88
2023/10/28 07:28:52;;;;;;;1999.90;999.90;;;;;;;;;;5061368;28;20057;-88
2023/10/28 07:31:19;;;;;;;1999.90;999.90;;;;;;;;;;5062530;28;20049;-87
2023/10/28 07:33:46;;;;;;;1999.90;999.90;;;;;;;;;;5057709;28;20114;-87
2023/10/28 07:36:13;;;;;;;1999.90;999.90;;;;;;;;;;5057992;28;20036;-89
2023/10/28 07:38:41;;;;;;;1999.90;999.90;;;;;;;;;;5061203;28;20405;-87
2023/10/28 07:41:08;;;;;;;1999.90;999.90;;;;;;;;;;5058114;28;20056;-88
2023/10/28 07:43:34;;;;;;;1999.90;999.90;;;;;;;;;;5059767;28;20040;-88
2023/10/28 07:46:01;;;;;;;1999.90;999.90;;;;;;;;;;5057780;28;20938;-86
2023/10/28 07:48:28;;;;;;;1999.90;999.90;;;;;;;;;;5059532;28;20485;-88
2023/10/28 07:50:54;;;;;;;1999.90;999.90;;;;;;;;;;5059179;28;20593;-88
2023/10/28 07:53:21;;;;;;;1999.90;999.90;;;;;;;;;;5063933;28;20054;-87
2023/10/28 07:55:49;;;;;;;1999.90;999.90;;;;;;;;;;5064190;28;20060;-88
2023/10/28 07:58:16;;;;;;;1999.90;999.90;;;;;;;;;;5063976;28;20060;-87
2023/10/28 08:00:42;;;;;;;1999.90;999.90;;;;;;;;;;5061803;28;20319;-87
2023/10/28 08:03:09;;;;;;;1999.90;999.90;;;;;;;;;;5060180;28;20131;-88
2023/10/28 08:05:35;;;;;;;1999.90;999.90;;;;;;;;;;5066018;28;20394;-84
2023/10/28 08:08:03;;;;;;;1999.90;999.90;;;;;;;;;;5057626;28;20139;-83
2023/10/28 08:10:29;;;;;;;1999.90;999.90;;;;;;;;;;5059577;28;20064;-83
2023/10/28 08:12:58;;;;;;;1999.90;999.90;;;;;;;;;;5062658;28;20063;-82
2023/10/28 08:15:25;;;;;;;1999.90;999.90;;;;;;;;;;5058452;28;20095;-83
2023/10/28 08:17:52;;;;;;;1999.90;999.90;;;;;;;;;;5065400;28;20052;-82
2023/10/28 08:20:18;;;;;;;1999.90;999.90;;;;;;;;;;5061228;28;20099;-83
2023/10/28 08:22:45;;;;;;;1999.90;999.90;;;;;;;;;;5060623;28;20060;-83
2023/10/28 08:25:15;;;;;;;1999.90;999.90;;;;;;;;;;5062416;28;20036;-83
2023/10/28 08:27:42;;;;;;;1999.90;999.90;;;;;;;;;;5061357;28;20124;-84
2023/10/28 08:30:14;;;;;;;1999.90;999.90;;;;;;;;;;5055969;28;20052;-83
2023/10/28 08:32:40;;;;;;;1999.90;999.90;;;;;;;;;;5060918;28;20045;-84
2023/10/28 08:35:07;;;;;;;1999.90;999.90;;;;;;;;;;5065713;28;20938;-84
2023/10/28 08:37:34;;;;;;;1999.90;999.90;;;;;;;;;;5062436;28;20048;-83
2023/10/28 08:40:00;;;;;;;1999.90;999.90;;;;;;;;;;5065081;28;20081;-84
2023/10/28 08:42:27;;;;;;;1999.90;999.90;;;;;;;;;;5058909;28;20052;-83
2023/10/28 08:44:55;;;;;;;1999.90;999.90;;;;;;;;;;5059924;28;20083;-83
2023/10/28 08:47:24;;;;;;;1999.90;999.90;;;;;;;;;;5056629;28;20048;-85
2023/10/28 08:49:52;;;;;;;1999.90;999.90;;;;;;;;;;5064345;28;20503;-84
2023/10/28 08:52:19;;;;;;;1999.90;999.90;;;;;;;;;;5062411;28;20075;-84
2023/10/28 08:54:46;;;;;;;1999.90;999.90;;;;;;;;;;5062875;28;20045;-85
2023/10/28 08:57:13;;;;;;;1999.90;999.90;;;;;;;;;;5062130;28;20052;-83
2023/10/28 08:59:40;;;;;;;1999.90;999.90;;;;;;;;;;5056792;28;20118;-84
2023/10/28 09:02:09;;;;;;;1999.90;999.90;;;;;;;;;;5061469;28;20137;-85
2023/10/28 09:04:37;;;;;;;1999.90;999.90;;;;;;;;;;5060964;28;20049;-84
2023/10/28 09:07:04;;;;;;;1999.90;999.90;;;;;;;;;;5059095;28;20413;-83
2023/10/28 09:09:31;;;;;;;1999.90;999.90;;;;;;;;;;5061936;28;20045;-84
2023/10/28 09:11:57;;;;;;;1999.90;999.90;;;;;;;;;;5063531;28;20052;-85
2023/10/28 09:14:24;;;;;;;1999.90;999.90;;;;;;;;;;5059489;28;20505;-83
2023/10/28 09:16:51;;;;;;;1999.90;999.90;;;;;;;;;;5057843;28;20040;-83
2023/10/28 09:19:20;;;;;;;1999.90;999.90;;;;;;;;;;5062793;28;20059;-83
2023/10/28 09:21:48;;;;;;;1999.90;999.90;;;;;;;;;;5058410;28;20068;-83
2023/10/28 09:24:15;;;;;;;1999.90;999.90;;;;;;;;;;5061446;28;20067;-85
2023/10/28 09:26:41;;;;;;;1999.90;999.90;;;;;;;;;;5060022;28;20045;-84
2023/10/28 09:29:08;;;;;;;1999.90;999.90;;;;;;;;;;5062256;28;20416;-84
2023/10/28 09:31:35;;;;;;;1999.90;999.90;;;;;;;;;;5062415;28;20668;-83
2023/10/28 09:34:02;;;;;;;1999.90;999.90;;;;;;;;;;5059949;28;20055;-85
2023/10/28 09:36:29;;;;;;;1999.90;999.90;;;;;;;;;;5058193;28;20558;-83
2023/10/28 09:38:57;;;;;;;1999.90;999.90;;;;;;;;;;5061355;28;20048;-84
2023/10/28 09:41:24;;;;;;;1999.90;999.90;;;;;;;;;;5054954;28;20082;-84
2023/10/28 09:43:51;;;;;;;1999.90;999.90;;;;;;;;;;5057985;28;20041;-84
2023/10/28 09:46:20;;;;;;;1999.90;999.90;;;;;;;;;;5062035;28;20056;-84
2023/10/28 09:48:49;;;;;;;1999.90;999.90;;;;;;;;;;5059439;28;20447;-82
2023/10/28 09:51:20;;;;;;;1999.90;999.90;;;;;;;;;;5063080;28;20049;-85
2023/10/28 09:53:49;;;;;;;1999.90;999.90;;;;;;;;;;5061868;28;20482;-85
2023/10/28 09:56:17;;;;;;;1999.90;999.90;;;;;;;;;;5064950;28;20447;-83
2023/10/28 09:58:48;;;;;;;1999.90;999.90;;;;;;;;;;5059799;28;20048;-83
2023/10/28 10:01:23;;;;;;;1999.90;999.90;;;;;;;;;;5061784;28;20075;-83
2023/10/28 10:03:57;;;;;;;1999.90;999.90;;;;;;;;;;5061896;28;20507;-84
2023/10/28 10:06:24;;;;;;;1999.90;999.90;;;;;;;;;;5067389;28;20135;-84
2023/10/28 10:08:52;;;;;;;1999.90;999.90;;;;;;;;;;5062241;28;20045;-84
2023/10/28 10:11:23;;;;;;;1999.90;999.90;;;;;;;;;;5063675;28;20052;-85
2023/10/28 10:13:49;;;;;;;1999.90;999.90;;;;;;;;;;5056674;28;20048;-84
2023/10/28 10:16:26;;;;;;;1999.90;999.90;;;;;;;;;;5064640;28;20056;-84
2023/10/28 10:18:54;;;;;;;1999.90;999.90;;;;;;;;;;5065183;28;20072;-85
2023/10/28 10:21:21;;;;;;;1999.90;999.90;;;;;;;;;;5054553;28;20049;-85
2023/10/28 10:23:52;;;;;;;1999.90;999.90;;;;;;;;;;5057376;28;20053;-84
2023/10/28 10:26:23;;;;;;;1999.90;999.90;;;;;;;;;;5058882;28;20386;-84
2023/10/28 10:28:52;;;;;;;1999.90;999.90;;;;;;;;;;5062711;28;20044;-83
2023/10/28 10:31:20;;;;;;;1999.90;999.90;;;;;;;;;;5061009;28;20052;-83
2023/10/28 10:33:47;;;;;;;1999.90;999.90;;;;;;;;;;5060189;28;20056;-83
2023/10/28 10:36:17;;;;;;;1999.90;999.90;;;;;;;;;;5062299;28;20045;-83
2023/10/28 10:38:45;;;;;;;1999.90;999.90;;;;;;;;;;5061678;28;20052;-84
2023/10/28 10:41:12;;;;;;;1999.90;999.90;;;;;;;;;;5062148;28;20057;-83
2023/10/28 10:43:40;;;;;;;1999.90;999.90;;;;;;;;;;5058629;28;20045;-85
2023/10/28 10:46:06;;;;;;;1999.90;999.90;;;;;;;;;;5056280;28;20041;-83
2023/10/28 10:48:34;;;;;;;1999.90;999.90;;;;;;;;;;5065247;28;20136;-84
2023/10/28 10:51:01;;;;;;;1999.90;999.90;;;;;;;;;;5058990;28;20051;-83
2023/10/28 10:53:27;;;;;;;1999.90;999.90;;;;;;;;;;5061185;28;20051;-84
2023/10/28 10:55:54;;;;;;;1999.90;999.90;;;;;;;;;;5057099;28;20048;-84
2023/10/28 10:58:20;;;;;;;1999.90;999.90;;;;;;;;;;5058757;28;20049;-84
2023/10/28 11:00:52;;;;;;;1999.90;999.90;;;;;;;;;;5059841;28;20048;-83
2023/10/28 11:03:19;;;;;;;1999.90;999.90;;;;;;;;;;5058331;28;20049;-83
2023/10/28 11:05:46;;;;;;;1999.90;999.90;;;;;;;;;;5061698;28;20076;-84
2023/10/28 11:08:14;;;;;;;1999.90;999.90;;;;;;;;;;5060224;28;20079;-83
2023/10/28 11:10:42;;;;;;;1999.90;999.90;;;;;;;;;;5055952;28;20127;-83
2023/10/28 11:13:09;;;;;;;1999.90;999.90;;;;;;;;;;5058983;28;20132;-83
2023/10/28 11:15:36;;;;;;;1999.90;999.90;;;;;;;;;;5060127;28;20052;-84
2023/10/28 11:18:06;;;;;;;1999.90;999.90;;;;;;;;;;5062911;28;20482;-83
2023/10/28 11:20:33;;;;;;;1999.90;999.90;;;;;;;;;;5060365;28;20045;-83
2023/10/28 11:22:59;;;;;;;1999.90;999.90;;;;;;;;;;5057335;28;20409;-83
2023/10/28 11:25:31;;;;;;;1999.90;999.90;;;;;;;;;;5058465;28;20490;-83
2023/10/28 11:27:58;;;;;;;1999.90;999.90;;;;;;;;;;5056790;28;20056;-83
2023/10/28 11:30:26;;;;;;;1999.90;999.90;;;;;;;;;;5058098;28;20048;-84
2023/10/28 11:32:55;;;;;;;1999.90;999.90;;;;;;;;;;5059281;28;20080;-83
2023/10/28 11:35:24;;;;;;;1999.90;999.90;;;;;;;;;;5056694;28;20486;-83
2023/10/28 11:37:53;;;;;;;1999.90;999.90;;;;;;;;;;5060257;28;20083;-82
2023/10/28 11:40:21;;;;;;;1999.90;999.90;;;;;;;;;;5058228;28;20052;-83
2023/10/28 11:42:48;;;;;;;1999.90;999.90;;;;;;;;;;5063833;28;20056;-81
2023/10/28 11:45:16;;;;;;;1999.90;999.90;;;;;;;;;;5059475;28;20053;-82
2023/10/28 11:47:43;;;;;;;1999.90;999.90;;;;;;;;;;5055433;28;20048;-83
2023/10/28 11:50:10;;;;;;;1999.90;999.90;;;;;;;;;;5061770;28;20521;-83
2023/10/28 11:52:38;;;;;;;1999.90;999.90;;;;;;;;;;5052990;28;20049;-82
2023/10/28 11:55:06;;;;;;;1999.90;999.90;;;;;;;;;;5059082;28;20140;-82
2023/10/28 11:57:33;;;;;;;1999.90;999.90;;;;;;;;;;5059181;28;20044;-83
2023/10/28 11:59:59;;;;;;;1999.90;999.90;;;;;;;;;;5058474;28;20063;-83
2023/10/28 12:02:26;;;;;;;1999.90;999.90;;;;;;;;;;5061077;28;20051;-82
2023/10/28 12:04:53;;;;;;;1999.90;999.90;;;;;;;;;;5060096;28;20053;-84
2023/10/28 12:07:20;;;;;;;1999.90;999.90;;;;;;;;;;5064612;28;20060;-83
2023/10/28 12:09:48;;;;;;;1999.90;999.90;;;;;;;;;;5058863;28;20041;-84
2023/10/28 12:12:14;;;;;;;1999.90;999.90;;;;;;;;;;5059418;28;20059;-83
2023/10/28 12:14:41;;;;;;;1999.90;999.90;;;;;;;;;;5061163;28;20053;-83
2023/10/28 12:17:07;;;;;;;1999.90;999.90;;;;;;;;;;5057962;28;20041;-83
2023/10/28 12:19:34;;;;;;;1999.90;999.90;;;;;;;;;;5057661;28;20055;-83
2023/10/28 12:22:00;;;;;;;1999.90;999.90;;;;;;;;;;5059135;28;20408;-83
2023/10/28 12:24:27;;;;;;;1999.90;999.90;;;;;;;;;;5053052;28;20075;-84
2023/10/28 12:26:55;;;;;;;1999.90;999.90;;;;;;;;;;5056836;28;20048;-83
2023/10/28 12:29:22;;;;;;;1999.90;999.90;;;;;;;;;;5060622;28;20044;-82
2023/10/28 12:31:49;;;;;;;1999.90;999.90;;;;;;;;;;5056232;28;20048;-83
2023/10/28 12:34:15;;;;;;;1999.90;999.90;;;;;;;;;;5056408;28;20134;-83
2023/10/28 12:36:43;;;;;;;1999.90;999.90;;;;;;;;;;5055475;28;20041;-81
2023/10/28 12:39:10;;;;;;;1999.90;999.90;;;;;;;;;;5064161;28;20089;-84
2023/10/28 12:41:37;;;;;;;1999.90;999.90;;;;;;;;;;5062631;28;20045;-83
2023/10/28 12:44:06;;;;;;;1999.90;999.90;;;;;;;;;;5061096;28;20064;-84
2023/10/28 12:46:32;;;;;;;1999.90;999.90;;;;;;;;;;5061620;28;20043;-83
2023/10/28 12:49:00;;;;;;;1999.90;999.90;;;;;;;;;;5064640;28;20507;-84
2023/10/28 12:51:28;;;;;;;1999.90;999.90;;;;;;;;;;5063216;28;20048;-83
2023/10/28 12:53:57;;;;;;;1999.90;999.90;;;;;;;;;;5059912;28;20515;-83
2023/10/28 12:56:23;;;;;;;1999.90;999.90;;;;;;;;;;5059755;28;20053;-82
2023/10/28 12:58:50;;;;;;;1999.90;999.90;;;;;;;;;;5059208;28;20529;-82
2023/10/28 13:01:18;;;;;;;1999.90;999.90;;;;;;;;;;5061952;28;20048;-83
2023/10/28 13:03:44;;;;;;;1999.90;999.90;;;;;;;;;;5064480;28;20051;-83
2023/10/28 13:06:11;;;;;;;1999.90;999.90;;;;;;;;;;5060426;28;20053;-82
2023/10/28 13:08:37;;;;;;;1999.90;999.90;;;;;;;;;;5059523;28;20490;-84
2023/10/28 13:11:04;;;;;;;1999.90;999.90;;;;;;;;;;5063571;28;20139;-83
2023/10/28 13:13:30;;;;;;;1999.90;999.90;;;;;;;;;;5061261;28;20436;-83
2023/10/28 13:15:57;;;;;;;1999.90;999.90;;;;;;;;;;5062024;28;20139;-83
2023/10/28 13:18:25;;;;;;;1999.90;999.90;;;;;;;;;;5060293;28;20417;-83
2023/10/28 13:20:52;;;;;;;1999.90;999.90;;;;;;;;;;5058107;28;20055;-85
2023/10/28 13:23:20;;;;;;;1999.90;999.90;;;;;;;;;;5060774;28;20045;-83
2023/10/28 13:25:46;;;;;;;1999.90;999.90;;;;;;;;;;5063373;28;20049;-83
2023/10/28 13:28:13;;;;;;;1999.90;999.90;;;;;;;;;;5057453;28;20044;-84
2023/10/28 13:30:39;;;;;;;1999.90;999.90;;;;;;;;;;5063866;28;20040;-83
2023/10/28 13:33:07;;;;;;;1999.90;999.90;;;;;;;;;;5061221;28;20044;-84
2023/10/28 13:35:35;;;;;;;1999.90;999.90;;;;;;;;;;5059443;28;20048;-83
2023/10/28 13:38:01;;;;;;;1999.90;999.90;;;;;;;;;;5064692;28;20049;-83
2023/10/28 13:40:28;;;;;;;1999.90;999.90;;;;;;;;;;5061206;28;20063;-83